KSSF/SSF METAR and TAF weather

Enter ICAO airport designator
Station Type Date Time Source
KSSF METAR 2021/07/24 18:53 UTC NOAA

KSSF 241853Z 17012KT 10SM CLR 33/23 A3002 RMK AO2 SLP152 T03330228 $


Station Type Date Time Source
KSSF Decoded METAR 2021/07/24 18:53 UTC NOAA

SAN ANTONIO STINSON MUNI, TX, United States (KSSF) 29-20N 098-28W 176M
Jul 24, 2021 - 02:53 PM EDT / 2021.07.24 1853 UTC
Wind: from the S (170 degrees) at 14 MPH (12 KT):0
Visibility: 10 mile(s):0
Sky conditions: clear
Temperature: 91.9 F (33.3 C)
Heat index: 100.6 F (38.1 C):1
Dew Point: 73.0 F (22.8 C)
Relative Humidity: 54%
Pressure (altimeter): 30.02 in. Hg (1016 hPa)
ob: KSSF 241853Z 17012KT 10SM CLR 33/23 A3002 RMK AO2 SLP152 T03330228
cycle: 19

Station Type Date Time Source
KSSF TAF 2021/07/24 18:42 UTC NOAA

TAF KSSF 241740Z 2418/2518 16010G20KT P6SM SCT040
FM250100 14005KT P6SM SKC
FM250900 15004KT P6SM SCT015
FM251700 18011KT P6SM SCT050

Example: see airport list